sensor_id;sensor_type;location;lat;lon;timestamp;pressure;altitude;pressure_sealevel;temperature;humidity
47374;BME280;33123;50.118;10.272;2022-07-23T00:01:07;97643.50;;;24.02;49.26
47374;BME280;33123;50.118;10.272;2022-07-23T00:03:33;97643.50;;;24.02;49.08
47374;BME280;33123;50.118;10.272;2022-07-23T00:06:00;97640.38;;;24.00;49.37
47374;BME280;33123;50.118;10.272;2022-07-23T00:08:45;97632.94;;;23.97;49.22
47374;BME280;33123;50.118;10.272;2022-07-23T00:11:12;97636.63;;;23.92;49.50
47374;BME280;33123;50.118;10.272;2022-07-23T00:13:39;97624.31;;;23.91;49.40
47374;BME280;33123;50.118;10.272;2022-07-23T00:16:08;97617.34;;;23.90;49.61
47374;BME280;33123;50.118;10.272;2022-07-23T00:18:34;97619.59;;;23.88;49.57
47374;BME280;33123;50.118;10.272;2022-07-23T00:21:01;97617.91;;;23.84;49.69
47374;BME280;33123;50.118;10.272;2022-07-23T00:23:28;97612.41;;;23.80;49.73
47374;BME280;33123;50.118;10.272;2022-07-23T00:25:56;97598.28;;;23.71;50.22
47374;BME280;33123;50.118;10.272;2022-07-23T00:28:23;97595.00;;;23.65;50.12
47374;BME280;33123;50.118;10.272;2022-07-23T00:30:50;97591.06;;;23.63;50.43
47374;BME280;33123;50.118;10.272;2022-07-23T00:33:19;97598.53;;;23.57;50.50
47374;BME280;33123;50.118;10.272;2022-07-23T00:35:45;97597.63;;;23.53;50.65
47374;BME280;33123;50.118;10.272;2022-07-23T00:38:12;97590.88;;;23.47;50.90
47374;BME280;33123;50.118;10.272;2022-07-23T00:40:39;97580.34;;;23.42;50.84
47374;BME280;33123;50.118;10.272;2022-07-23T00:43:06;97589.41;;;23.37;51.17
47374;BME280;33123;50.118;10.272;2022-07-23T00:45:33;97585.47;;;23.35;51.11
47374;BME280;33123;50.118;10.272;2022-07-23T00:47:59;97587.25;;;23.31;51.36
47374;BME280;33123;50.118;10.272;2022-07-23T00:50:28;97581.44;;;23.29;51.37
47374;BME280;33123;50.118;10.272;2022-07-23T00:52:55;97582.56;;;23.28;51.50
47374;BME280;33123;50.118;10.272;2022-07-23T00:55:22;97590.94;;;23.26;51.72
47374;BME280;33123;50.118;10.272;2022-07-23T00:57:49;97582.06;;;23.26;51.50
47374;BME280;33123;50.118;10.272;2022-07-23T01:00:16;97576.47;;;23.18;51.94
47374;BME280;33123;50.118;10.272;2022-07-23T01:02:43;97577.59;;;23.17;51.83
47374;BME280;33123;50.118;10.272;2022-07-23T01:05:10;97564.34;;;23.12;51.92
47374;BME280;33123;50.118;10.272;2022-07-23T01:07:38;97573.06;;;23.09;52.01
47374;BME280;33123;50.118;10.272;2022-07-23T01:10:05;97566.53;;;22.98;52.28
47374;BME280;33123;50.118;10.272;2022-07-23T01:12:52;97571.25;;;23.01;52.54
47374;BME280;33123;50.118;10.272;2022-07-23T01:15:19;97566.66;;;23.02;52.49
47374;BME280;33123;50.118;10.272;2022-07-23T01:17:46;97570.81;;;22.99;52.25
47374;BME280;33123;50.118;10.272;2022-07-23T01:20:12;97560.06;;;22.99;52.58
47374;BME280;33123;50.118;10.272;2022-07-23T01:22:40;97553.06;;;22.98;52.56
47374;BME280;33123;50.118;10.272;2022-07-23T01:25:07;97556.44;;;22.95;52.46
47374;BME280;33123;50.118;10.272;2022-07-23T01:27:34;97555.38;;;22.87;52.47
47374;BME280;33123;50.118;10.272;2022-07-23T01:30:03;97559.34;;;22.90;52.95
47374;BME280;33123;50.118;10.272;2022-07-23T01:32:30;97568.34;;;22.85;52.61
47374;BME280;33123;50.118;10.272;2022-07-23T01:34:56;97569.81;;;22.83;52.69
47374;BME280;33123;50.118;10.272;2022-07-23T01:37:23;97572.00;;;22.81;53.05
47374;BME280;33123;50.118;10.272;2022-07-23T01:39:51;97568.88;;;22.79;52.93
47374;BME280;33123;50.118;10.272;2022-07-23T01:42:18;97566.84;;;22.76;52.92
47374;BME280;33123;50.118;10.272;2022-07-23T01:44:44;97575.69;;;22.76;53.04
47374;BME280;33123;50.118;10.272;2022-07-23T01:47:11;97578.69;;;22.75;52.78
47374;BME280;33123;50.118;10.272;2022-07-23T01:49:38;97582.50;;;22.74;53.53
47374;BME280;33123;50.118;10.272;2022-07-23T01:52:04;97562.19;;;22.64;53.49
47374;BME280;33123;50.118;10.272;2022-07-23T01:54:34;97572.16;;;22.63;53.78
47374;BME280;33123;50.118;10.272;2022-07-23T01:57:02;97582.09;;;22.63;53.93
47374;BME280;33123;50.118;10.272;2022-07-23T01:59:29;97575.50;;;22.60;54.15
47374;BME280;33123;50.118;10.272;2022-07-23T02:01:56;97579.75;;;22.61;53.76
47374;BME280;33123;50.118;10.272;2022-07-23T02:04:24;97568.22;;;22.61;53.71
47374;BME280;33123;50.118;10.272;2022-07-23T02:06:51;97559.38;;;22.60;54.25
47374;BME280;33123;50.118;10.272;2022-07-23T02:09:18;97551.19;;;22.57;54.17
47374;BME280;33123;50.118;10.272;2022-07-23T02:11:45;97548.94;;;22.59;54.04
47374;BME280;33123;50.118;10.272;2022-07-23T02:14:13;97548.94;;;22.59;54.24
47374;BME280;33123;50.118;10.272;2022-07-23T02:16:39;97545.81;;;22.57;54.33
47374;BME280;33123;50.118;10.272;2022-07-23T02:19:06;97553.53;;;22.58;54.22
47374;BME280;33123;50.118;10.272;2022-07-23T02:21:33;97549.28;;;22.57;54.36
47374;BME280;33123;50.118;10.272;2022-07-23T02:23:59;97558.91;;;22.58;54.42
47374;BME280;33123;50.118;10.272;2022-07-23T02:26:26;97561.28;;;22.60;54.07
47374;BME280;33123;50.118;10.272;2022-07-23T02:28:53;97547.84;;;22.60;54.20
47374;BME280;33123;50.118;10.272;2022-07-23T02:31:21;97544.34;;;22.59;54.19
47374;BME280;33123;50.118;10.272;2022-07-23T02:33:47;97546.75;;;22.61;54.53
47374;BME280;33123;50.118;10.272;2022-07-23T02:36:14;97548.63;;;22.60;54.36
47374;BME280;33123;50.118;10.272;2022-07-23T02:38:41;97551.31;;;22.60;54.43
47374;BME280;33123;50.118;10.272;2022-07-23T02:41:08;97554.31;;;22.59;54.58
47374;BME280;33123;50.118;10.272;2022-07-23T02:43:34;97538.88;;;22.56;54.25
47374;BME280;33123;50.118;10.272;2022-07-23T02:46:01;97548.06;;;22.55;54.49
47374;BME280;33123;50.118;10.272;2022-07-23T02:48:29;97547.56;;;22.53;54.32
47374;BME280;33123;50.118;10.272;2022-07-23T02:50:55;97539.06;;;22.51;54.42
47374;BME280;33123;50.118;10.272;2022-07-23T02:53:22;97540.97;;;22.50;54.22
47374;BME280;33123;50.118;10.272;2022-07-23T02:55:49;97538.47;;;22.45;54.68
47374;BME280;33123;50.118;10.272;2022-07-23T02:58:15;97535.66;;;22.42;54.49
47374;BME280;33123;50.118;10.272;2022-07-23T03:00:42;97542.31;;;22.35;54.67
47374;BME280;33123;50.118;10.272;2022-07-23T03:03:09;97532.75;;;22.26;54.98
47374;BME280;33123;50.118;10.272;2022-07-23T03:05:37;97531.84;;;22.22;55.45
47374;BME280;33123;50.118;10.272;2022-07-23T03:08:04;97527.13;;;22.19;55.47
47374;BME280;33123;50.118;10.272;2022-07-23T03:10:30;97525.88;;;22.16;55.45
47374;BME280;33123;50.118;10.272;2022-07-23T03:12:57;97523.50;;;22.14;55.58
47374;BME280;33123;50.118;10.272;2022-07-23T03:15:24;97519.25;;;22.13;55.51
47374;BME280;33123;50.118;10.272;2022-07-23T03:17:50;97521.47;;;22.11;55.98
47374;BME280;33123;50.118;10.272;2022-07-23T03:20:17;97520.97;;;22.09;55.61
47374;BME280;33123;50.118;10.272;2022-07-23T03:22:45;97508.06;;;22.11;55.67
47374;BME280;33123;50.118;10.272;2022-07-23T03:25:11;97512.75;;;22.14;55.72
47374;BME280;33123;50.118;10.272;2022-07-23T03:27:38;97509.00;;;22.16;55.63
47374;BME280;33123;50.118;10.272;2022-07-23T03:30:06;97512.75;;;22.14;55.77
47374;BME280;33123;50.118;10.272;2022-07-23T03:32:33;97511.19;;;22.13;55.71
47374;BME280;33123;50.118;10.272;2022-07-23T03:34:59;97531.44;;;22.11;56.25
47374;BME280;33123;50.118;10.272;2022-07-23T03:37:26;97536.81;;;22.11;55.83
47374;BME280;33123;50.118;10.272;2022-07-23T03:39:54;97544.06;;;22.10;56.03
47374;BME280;33123;50.118;10.272;2022-07-23T03:42:20;97552.13;;;22.10;55.91
47374;BME280;33123;50.118;10.272;2022-07-23T03:44:47;97551.34;;;22.10;55.98
47374;BME280;33123;50.118;10.272;2022-07-23T03:47:14;97550.84;;;22.08;56.48
47374;BME280;33123;50.118;10.272;2022-07-23T03:49:42;97550.72;;;22.04;56.63
47374;BME280;33123;50.118;10.272;2022-07-23T03:52:09;97558.44;;;22.06;56.47
47374;BME280;33123;50.118;10.272;2022-07-23T03:54:36;97565.38;;;22.07;56.70
47374;BME280;33123;50.118;10.272;2022-07-23T03:57:04;97569.16;;;22.06;57.00
47374;BME280;33123;50.118;10.272;2022-07-23T03:59:31;97571.25;;;22.00;57.16
47374;BME280;33123;50.118;10.272;2022-07-23T04:01:57;97586.84;;;22.07;57.21
47374;BME280;33123;50.118;10.272;2022-07-23T04:04:24;97583.69;;;22.05;57.87
47374;BME280;33123;50.118;10.272;2022-07-23T04:06:51;97573.59;;;22.02;57.81
47374;BME280;33123;50.118;10.272;2022-07-23T04:09:17;97568.06;;;21.98;58.10
47374;BME280;33123;50.118;10.272;2022-07-23T04:11:44;97593.34;;;21.97;58.46
47374;BME280;33123;50.118;10.272;2022-07-23T04:14:12;97601.41;;;21.97;58.26
47374;BME280;33123;50.118;10.272;2022-07-23T04:16:38;97604.09;;;21.97;58.47
47374;BME280;33123;50.118;10.272;2022-07-23T04:19:05;97602.06;;;21.94;58.68
47374;BME280;33123;50.118;10.272;2022-07-23T04:21:53;97607.88;;;21.96;58.96
47374;BME280;33123;50.118;10.272;2022-07-23T04:24:20;97600.94;;;21.95;59.21
47374;BME280;33123;50.118;10.272;2022-07-23T04:26:46;97590.84;;;21.92;59.04
47374;BME280;33123;50.118;10.272;2022-07-23T04:29:14;97593.22;;;21.94;59.50
47374;BME280;33123;50.118;10.272;2022-07-23T04:31:41;97593.69;;;21.96;59.20
47374;BME280;33123;50.118;10.272;2022-07-23T04:34:07;97589.53;;;21.98;59.68
47374;BME280;33123;50.118;10.272;2022-07-23T04:36:34;97594.75;;;22.03;59.26
47374;BME280;33123;50.118;10.272;2022-07-23T04:39:01;97605.28;;;22.08;59.22
47374;BME280;33123;50.118;10.272;2022-07-23T04:41:27;97605.81;;;22.10;59.15
47374;BME280;33123;50.118;10.272;2022-07-23T04:43:54;97602.16;;;22.06;59.52
47374;BME280;33123;50.118;10.272;2022-07-23T04:46:22;97601.03;;;22.07;59.49
47374;BME280;33123;50.118;10.272;2022-07-23T04:48:48;97604.50;;;22.08;59.25
47374;BME280;33123;50.118;10.272;2022-07-23T04:51:15;97591.59;;;22.01;59.24
47374;BME280;33123;50.118;10.272;2022-07-23T04:53:42;97609.09;;;22.07;59.54
47374;BME280;33123;50.118;10.272;2022-07-23T04:56:08;97592.22;;;22.07;59.52
47374;BME280;33123;50.118;10.272;2022-07-23T04:58:35;97584.78;;;22.12;59.23
47374;BME280;33123;50.118;10.272;2022-07-23T05:01:02;97585.91;;;22.11;59.42
47374;BME280;33123;50.118;10.272;2022-07-23T05:03:30;97592.66;;;22.18;59.25
47374;BME280;33123;50.118;10.272;2022-07-23T05:05:57;97604.34;;;22.22;59.32
47374;BME280;33123;50.118;10.272;2022-07-23T05:08:24;97594.69;;;22.21;58.83
47374;BME280;33123;50.118;10.272;2022-07-23T05:10:50;97587.09;;;22.23;59.02
47374;BME280;33123;50.118;10.272;2022-07-23T05:13:17;97578.38;;;22.26;59.04
47374;BME280;33123;50.118;10.272;2022-07-23T05:15:45;97580.00;;;22.27;58.80
47374;BME280;33123;50.118;10.272;2022-07-23T05:18:12;97576.97;;;22.28;59.07
47374;BME280;33123;50.118;10.272;2022-07-23T05:20:40;97575.81;;;22.38;58.67
47374;BME280;33123;50.118;10.272;2022-07-23T05:23:07;97591.84;;;22.47;58.51
47374;BME280;33123;50.118;10.272;2022-07-23T05:25:34;97592.25;;;22.57;58.28
47374;BME280;33123;50.118;10.272;2022-07-23T05:28:00;97589.38;;;22.62;58.17
47374;BME280;33123;50.118;10.272;2022-07-23T05:30:27;97601.66;;;22.72;58.02
47374;BME280;33123;50.118;10.272;2022-07-23T05:32:54;97615.78;;;22.81;57.82
47374;BME280;33123;50.118;10.272;2022-07-23T05:35:20;97621.88;;;22.99;58.56
47374;BME280;33123;50.118;10.272;2022-07-23T05:37:48;97628.00;;;23.21;56.96
47374;BME280;33123;50.118;10.272;2022-07-23T05:40:18;97635.94;;;23.38;56.37
47374;BME280;33123;50.118;10.272;2022-07-23T05:42:45;97624.09;;;23.51;56.06
47374;BME280;33123;50.118;10.272;2022-07-23T05:45:11;97621.63;;;23.58;55.63
47374;BME280;33123;50.118;10.272;2022-07-23T05:47:42;97626.84;;;23.63;55.46
47374;BME280;33123;50.118;10.272;2022-07-23T05:50:10;97626.19;;;23.66;55.34
47374;BME280;33123;50.118;10.272;2022-07-23T05:52:37;97625.25;;;23.62;55.04
47374;BME280;33123;50.118;10.272;2022-07-23T05:55:06;97644.66;;;23.68;55.38
47374;BME280;33123;50.118;10.272;2022-07-23T05:57:33;97658.00;;;23.64;55.38
47374;BME280;33123;50.118;10.272;2022-07-23T06:00:01;97670.53;;;23.60;55.37
47374;BME280;33123;50.118;10.272;2022-07-23T06:02:28;97681.50;;;23.55;55.78
47374;BME280;33123;50.118;10.272;2022-07-23T06:04:54;97685.81;;;23.48;55.76
47374;BME280;33123;50.118;10.272;2022-07-23T06:07:21;97697.13;;;23.41;56.02
47374;BME280;33123;50.118;10.272;2022-07-23T06:09:48;97706.50;;;23.35;56.28
47374;BME280;33123;50.118;10.272;2022-07-23T06:12:16;97707.38;;;23.27;56.57
47374;BME280;33123;50.118;10.272;2022-07-23T06:14:43;97710.25;;;23.22;56.79
47374;BME280;33123;50.118;10.272;2022-07-23T06:17:10;97710.44;;;23.16;56.72
47374;BME280;33123;50.118;10.272;2022-07-23T06:19:37;97706.19;;;23.15;57.02
47374;BME280;33123;50.118;10.272;2022-07-23T06:22:03;97709.34;;;23.17;57.36
47374;BME280;33123;50.118;10.272;2022-07-23T06:24:30;97715.16;;;23.19;57.38
47374;BME280;33123;50.118;10.272;2022-07-23T06:26:56;97729.97;;;23.26;57.26
47374;BME280;33123;50.118;10.272;2022-07-23T06:29:25;97726.66;;;23.29;56.87
47374;BME280;33123;50.118;10.272;2022-07-23T06:31:51;97734.38;;;23.30;56.76
47374;BME280;33123;50.118;10.272;2022-07-23T06:34:18;97729.78;;;23.31;56.38
47374;BME280;33123;50.118;10.272;2022-07-23T06:36:45;97733.06;;;23.36;56.73
47374;BME280;33123;50.118;10.272;2022-07-23T06:39:11;97733.84;;;23.37;56.42
47374;BME280;33123;50.118;10.272;2022-07-23T06:41:38;97734.63;;;23.37;56.64
47374;BME280;33123;50.118;10.272;2022-07-23T06:44:04;97734.53;;;23.34;56.52
47374;BME280;33123;50.118;10.272;2022-07-23T06:46:33;97735.94;;;23.31;56.83
47374;BME280;33123;50.118;10.272;2022-07-23T06:48:59;97738.53;;;23.28;57.33
47374;BME280;33123;50.118;10.272;2022-07-23T06:51:26;97731.09;;;23.25;57.49
47374;BME280;33123;50.118;10.272;2022-07-23T06:53:53;97738.72;;;23.23;57.73
47374;BME280;33123;50.118;10.272;2022-07-23T06:56:19;97748.53;;;23.18;57.55
47374;BME280;33123;50.118;10.272;2022-07-23T06:58:46;97742.25;;;23.14;57.94
47374;BME280;33123;50.118;10.272;2022-07-23T07:01:13;97753.28;;;23.22;57.74
47374;BME280;33123;50.118;10.272;2022-07-23T07:03:41;97751.03;;;23.24;57.78
47374;BME280;33123;50.118;10.272;2022-07-23T07:06:08;97722.03;;;23.08;57.90
47374;BME280;33123;50.118;10.272;2022-07-23T07:08:34;97750.41;;;23.27;58.09
47374;BME280;33123;50.118;10.272;2022-07-23T07:11:01;97754.66;;;23.28;57.88
47374;BME280;33123;50.118;10.272;2022-07-23T07:13:28;97762.38;;;23.29;58.02
47374;BME280;33123;50.118;10.272;2022-07-23T07:15:54;97760.28;;;23.35;57.81
47374;BME280;33123;50.118;10.272;2022-07-23T07:18:21;97761.41;;;23.34;57.78
47374;BME280;33123;50.118;10.272;2022-07-23T07:20:49;97747.63;;;23.35;57.85
47374;BME280;33123;50.118;10.272;2022-07-23T07:23:16;97765.47;;;23.40;57.55
47374;BME280;33123;50.118;10.272;2022-07-23T07:25:43;97768.63;;;23.42;57.55
47374;BME280;33123;50.118;10.272;2022-07-23T07:28:09;97772.44;;;23.41;57.23
47374;BME280;33123;50.118;10.272;2022-07-23T07:30:36;97780.44;;;23.50;57.62
47374;BME280;33123;50.118;10.272;2022-07-23T07:33:03;97774.09;;;23.54;57.66
47374;BME280;33123;50.118;10.272;2022-07-23T07:35:30;97779.72;;;23.61;57.66
47374;BME280;33123;50.118;10.272;2022-07-23T07:37:59;97768.78;;;23.66;57.19
47374;BME280;33123;50.118;10.272;2022-07-23T07:40:26;97770.81;;;23.69;57.18
47374;BME280;33123;50.118;10.272;2022-07-23T07:42:54;97769.38;;;23.72;57.16
47374;BME280;33123;50.118;10.272;2022-07-23T07:45:23;97779.47;;;23.75;57.04
47374;BME280;33123;50.118;10.272;2022-07-23T07:47:50;97795.31;;;23.77;57.08
47374;BME280;33123;50.118;10.272;2022-07-23T07:50:17;97789.44;;;23.75;56.98
47374;BME280;33123;50.118;10.272;2022-07-23T07:52:44;97792.38;;;23.82;57.28
47374;BME280;33123;50.118;10.272;2022-07-23T07:55:13;97775.59;;;23.85;57.35
47374;BME280;33123;50.118;10.272;2022-07-23T07:57:40;97763.78;;;23.77;57.29
47374;BME280;33123;50.118;10.272;2022-07-23T08:00:08;97777.53;;;23.96;57.14
47374;BME280;33123;50.118;10.272;2022-07-23T08:02:40;97776.69;;;24.05;56.89
47374;BME280;33123;50.118;10.272;2022-07-23T08:05:08;97781.97;;;24.13;56.96
47374;BME280;33123;50.118;10.272;2022-07-23T08:07:35;97784.25;;;24.23;57.02
47374;BME280;33123;50.118;10.272;2022-07-23T08:10:03;97784.75;;;24.38;56.91
47374;BME280;33123;50.118;10.272;2022-07-23T08:12:39;97784.22;;;24.57;56.41
47374;BME280;33123;50.118;10.272;2022-07-23T08:15:08;97799.06;;;24.75;55.81
47374;BME280;33123;50.118;10.272;2022-07-23T08:17:35;97794.47;;;25.12;56.26
47374;BME280;33123;50.118;10.272;2022-07-23T08:20:03;97801.00;;;25.64;54.38
47374;BME280;33123;50.118;10.272;2022-07-23T08:22:45;97792.06;;;26.44;52.99
47374;BME280;33123;50.118;10.272;2022-07-23T08:25:12;97787.75;;;27.06;49.80
47374;BME280;33123;50.118;10.272;2022-07-23T08:27:41;97788.31;;;27.66;47.23
47374;BME280;33123;50.118;10.272;2022-07-23T08:30:09;97786.59;;;28.16;47.37
47374;BME280;33123;50.118;10.272;2022-07-23T08:32:48;97775.50;;;28.67;46.22
47374;BME280;33123;50.118;10.272;2022-07-23T08:35:16;97780.50;;;29.14;43.74
47374;BME280;33123;50.118;10.272;2022-07-23T08:37:42;97789.78;;;29.70;43.22
47374;BME280;33123;50.118;10.272;2022-07-23T08:40:10;97791.25;;;30.31;41.81
47374;BME280;33123;50.118;10.272;2022-07-23T08:42:37;97797.53;;;30.80;39.94
47374;BME280;33123;50.118;10.272;2022-07-23T08:45:07;97795.63;;;31.32;38.34
47374;BME280;33123;50.118;10.272;2022-07-23T08:47:35;97804.34;;;31.69;39.13
47374;BME280;33123;50.118;10.272;2022-07-23T08:50:02;97803.31;;;31.95;37.27
47374;BME280;33123;50.118;10.272;2022-07-23T08:52:30;97778.22;;;31.65;37.88
47374;BME280;33123;50.118;10.272;2022-07-23T08:54:57;97802.44;;;31.77;37.82
47374;BME280;33123;50.118;10.272;2022-07-23T08:57:24;97804.41;;;31.80;37.41
47374;BME280;33123;50.118;10.272;2022-07-23T08:59:51;97810.31;;;31.96;38.40
47374;BME280;33123;50.118;10.272;2022-07-23T09:02:19;97811.13;;;32.15;37.92
47374;BME280;33123;50.118;10.272;2022-07-23T09:04:45;97807.28;;;32.30;37.38
47374;BME280;33123;50.118;10.272;2022-07-23T09:07:12;97825.13;;;31.99;36.53
47374;BME280;33123;50.118;10.272;2022-07-23T09:09:39;97824.44;;;32.27;37.88
47374;BME280;33123;50.118;10.272;2022-07-23T09:12:07;97821.63;;;32.02;36.84
47374;BME280;33123;50.118;10.272;2022-07-23T09:14:39;97821.22;;;31.93;37.62
47374;BME280;33123;50.118;10.272;2022-07-23T09:17:10;97818.72;;;31.63;37.85
47374;BME280;33123;50.118;10.272;2022-07-23T09:19:39;97818.03;;;31.18;38.22
47374;BME280;33123;50.118;10.272;2022-07-23T09:22:17;97819.91;;;30.21;39.73
47374;BME280;33123;50.118;10.272;2022-07-23T09:25:02;97829.72;;;29.66;41.08
47374;BME280;33123;50.118;10.272;2022-07-23T09:27:46;97818.94;;;29.46;41.92
47374;BME280;33123;50.118;10.272;2022-07-23T09:30:13;97824.19;;;29.06;42.60
47374;BME280;33123;50.118;10.272;2022-07-23T09:32:40;97825.00;;;29.36;42.85
47374;BME280;33123;50.118;10.272;2022-07-23T09:35:08;97826.13;;;29.32;42.46
47374;BME280;33123;50.118;10.272;2022-07-23T09:37:35;97826.19;;;29.95;42.00
47374;BME280;33123;50.118;10.272;2022-07-23T09:40:07;97832.09;;;30.72;39.73
47374;BME280;33123;50.118;10.272;2022-07-23T09:42:35;97818.59;;;31.38;38.65
47374;BME280;33123;50.118;10.272;2022-07-23T09:45:02;97826.06;;;31.51;38.43
47374;BME280;33123;50.118;10.272;2022-07-23T09:47:31;97826.84;;;30.97;39.17
47374;BME280;33123;50.118;10.272;2022-07-23T09:49:59;97835.44;;;31.02;38.89
47374;BME280;33123;50.118;10.272;2022-07-23T09:52:32;97826.00;;;30.89;39.28
47374;BME280;33123;50.118;10.272;2022-07-23T09:55:00;97825.22;;;30.48;39.74
47374;BME280;33123;50.118;10.272;2022-07-23T09:57:28;97806.91;;;30.41;39.77
47374;BME280;33123;50.118;10.272;2022-07-23T09:59:57;97825.88;;;30.34;40.39
47374;BME280;33123;50.118;10.272;2022-07-23T10:02:25;97818.31;;;30.98;39.86
47374;BME280;33123;50.118;10.272;2022-07-23T10:04:53;97818.66;;;31.48;38.14
47374;BME280;33123;50.118;10.272;2022-07-23T10:07:21;97820.03;;;31.97;37.19
47374;BME280;33123;50.118;10.272;2022-07-23T10:09:51;97826.09;;;31.59;37.92
47374;BME280;33123;50.118;10.272;2022-07-23T10:12:19;97826.78;;;32.32;37.02
47374;BME280;33123;50.118;10.272;2022-07-23T10:14:51;97827.22;;;32.70;36.64
47374;BME280;33123;50.118;10.272;2022-07-23T10:17:18;97814.34;;;33.34;36.76
47374;BME280;33123;50.118;10.272;2022-07-23T10:19:45;97818.84;;;34.02;34.31
47374;BME280;33123;50.118;10.272;2022-07-23T10:22:15;97822.84;;;34.56;34.43
47374;BME280;33123;50.118;10.272;2022-07-23T10:24:55;97829.13;;;35.05;32.51
47374;BME280;33123;50.118;10.272;2022-07-23T10:27:48;97825.97;;;35.07;31.16
47374;BME280;33123;50.118;10.272;2022-07-23T10:30:20;97823.13;;;34.69;31.74
47374;BME280;33123;50.118;10.272;2022-07-23T10:32:56;97824.56;;;34.29;32.44
47374;BME280;33123;50.118;10.272;2022-07-23T10:35:33;97827.34;;;34.22;33.44
47374;BME280;33123;50.118;10.272;2022-07-23T10:38:11;97817.84;;;34.44;32.63
47374;BME280;33123;50.118;10.272;2022-07-23T10:40:53;97816.59;;;34.56;32.08
47374;BME280;33123;50.118;10.272;2022-07-23T10:43:20;97824.66;;;34.74;31.97
47374;BME280;33123;50.118;10.272;2022-07-23T10:45:47;97828.97;;;35.19;33.31
47374;BME280;33123;50.118;10.272;2022-07-23T10:48:15;97818.88;;;35.85;31.41
47374;BME280;33123;50.118;10.272;2022-07-23T10:50:44;97817.38;;;36.41;30.60
47374;BME280;33123;50.118;10.272;2022-07-23T10:53:53;97815.47;;;36.65;29.87
47374;BME280;33123;50.118;10.272;2022-07-23T10:57:03;97818.97;;;36.39;29.79
47374;BME280;33123;50.118;10.272;2022-07-23T11:02:37;97820.25;;;35.32;30.80
47374;BME280;33123;50.118;10.272;2022-07-23T11:05:06;97819.44;;;35.35;31.46
47374;BME280;33123;50.118;10.272;2022-07-23T11:07:34;97813.72;;;35.60;31.10
47374;BME280;33123;50.118;10.272;2022-07-23T11:10:01;97812.75;;;35.74;30.59
47374;BME280;33123;50.118;10.272;2022-07-23T11:12:34;97817.22;;;35.60;30.15
47374;BME280;33123;50.118;10.272;2022-07-23T11:15:03;97815.63;;;35.63;29.44
47374;BME280;33123;50.118;10.272;2022-07-23T11:17:32;97819.06;;;35.33;29.37
47374;BME280;33123;50.118;10.272;2022-07-23T11:20:20;97807.47;;;35.18;30.01
47374;BME280;33123;50.118;10.272;2022-07-23T11:22:49;97809.56;;;35.03;30.21
47374;BME280;33123;50.118;10.272;2022-07-23T11:25:33;97810.34;;;35.41;30.58
47374;BME280;33123;50.118;10.272;2022-07-23T11:28:18;97803.31;;;35.44;29.23
47374;BME280;33123;50.118;10.272;2022-07-23T11:30:47;97795.28;;;35.91;29.08
47374;BME280;33123;50.118;10.272;2022-07-23T11:33:19;97779.16;;;36.27;29.26
47374;BME280;33123;50.118;10.272;2022-07-23T11:35:47;97797.81;;;36.86;28.16
47374;BME280;33123;50.118;10.272;2022-07-23T11:38:16;97792.91;;;37.01;27.04
47374;BME280;33123;50.118;10.272;2022-07-23T11:40:45;97795.03;;;37.13;26.69
47374;BME280;33123;50.118;10.272;2022-07-23T11:43:13;97804.13;;;37.10;26.63
47374;BME280;33123;50.118;10.272;2022-07-23T11:45:44;97807.34;;;36.82;26.22
47374;BME280;33123;50.118;10.272;2022-07-23T11:48:16;97804.72;;;36.47;26.06
47374;BME280;33123;50.118;10.272;2022-07-23T11:50:43;97798.31;;;35.69;26.65
47374;BME280;33123;50.118;10.272;2022-07-23T11:53:10;97795.88;;;35.44;26.97
47374;BME280;33123;50.118;10.272;2022-07-23T11:55:37;97803.72;;;34.42;27.72
47374;BME280;33123;50.118;10.272;2022-07-23T11:58:05;97798.38;;;34.24;28.41
47374;BME280;33123;50.118;10.272;2022-07-23T12:00:32;97800.88;;;34.04;28.61
47374;BME280;33123;50.118;10.272;2022-07-23T12:03:01;97799.38;;;33.78;28.39
47374;BME280;33123;50.118;10.272;2022-07-23T12:05:30;97791.97;;;33.79;28.62
47374;BME280;33123;50.118;10.272;2022-07-23T12:07:57;97789.28;;;33.72;29.04
47374;BME280;33123;50.118;10.272;2022-07-23T12:10:26;97794.66;;;33.89;31.92
47374;BME280;33123;50.118;10.272;2022-07-23T12:12:54;97801.09;;;34.28;32.59
47374;BME280;33123;50.118;10.272;2022-07-23T12:15:23;97798.97;;;34.60;32.13
47374;BME280;33123;50.118;10.272;2022-07-23T12:17:52;97800.22;;;34.97;31.38
47374;BME280;33123;50.118;10.272;2022-07-23T12:20:23;97785.72;;;35.38;31.16
47374;BME280;33123;50.118;10.272;2022-07-23T12:22:52;97787.16;;;35.84;30.72
47374;BME280;33123;50.118;10.272;2022-07-23T12:25:21;97761.44;;;36.05;28.63
47374;BME280;33123;50.118;10.272;2022-07-23T12:27:59;97782.25;;;36.56;29.41
47374;BME280;33123;50.118;10.272;2022-07-23T12:30:27;97791.50;;;36.66;29.08
47374;BME280;33123;50.118;10.272;2022-07-23T12:32:56;97789.16;;;36.64;28.90
47374;BME280;33123;50.118;10.272;2022-07-23T12:35:31;97789.13;;;36.68;29.12
47374;BME280;33123;50.118;10.272;2022-07-23T12:38:01;97784.47;;;36.65;28.97
47374;BME280;33123;50.118;10.272;2022-07-23T12:40:30;97783.31;;;36.62;29.75
47374;BME280;33123;50.118;10.272;2022-07-23T12:42:58;97782.25;;;36.56;28.48
47374;BME280;33123;50.118;10.272;2022-07-23T12:45:26;97781.91;;;36.54;28.57
47374;BME280;33123;50.118;10.272;2022-07-23T12:47:56;97783.19;;;36.46;28.70
47374;BME280;33123;50.118;10.272;2022-07-23T12:50:40;97793.81;;;36.44;28.53
47374;BME280;33123;50.118;10.272;2022-07-23T12:53:10;97796.97;;;36.42;28.46
47374;BME280;33123;50.118;10.272;2022-07-23T12:55:38;97798.84;;;36.49;28.13
47374;BME280;33123;50.118;10.272;2022-07-23T12:58:07;97802.06;;;36.44;27.40
47374;BME280;33123;50.118;10.272;2022-07-23T13:00:49;97782.25;;;35.68;24.67